createdAt,value
2017-09-11T00:00:57.102Z,12.15
2017-09-11T00:02:07.369Z,12.12
2017-09-11T00:03:17.635Z,12.1
2017-09-11T00:04:27.595Z,12.12
2017-09-11T00:05:37.532Z,11.96
2017-09-11T00:06:47.793Z,11.99
2017-09-11T00:07:58.057Z,12
2017-09-11T00:09:08.000Z,12
2017-09-11T00:10:18.257Z,11.97
2017-09-11T00:11:28.200Z,12.02
2017-09-11T00:12:38.141Z,11.97
2017-09-11T00:13:47.760Z,11.97
2017-09-11T00:14:58.027Z,11.95
2017-09-11T00:16:07.972Z,11.95
2017-09-11T00:17:18.245Z,11.88
2017-09-11T00:18:28.506Z,11.89
2017-09-11T00:19:38.449Z,11.81
2017-09-11T00:20:47.749Z,11.76
2017-09-11T00:21:58.019Z,11.7
2017-09-11T00:23:07.640Z,11.71
2017-09-11T00:24:17.904Z,11.62
2017-09-11T00:25:27.854Z,11.67
2017-09-11T00:26:38.122Z,11.68
2017-09-11T00:27:47.744Z,11.59
2017-09-11T00:28:57.368Z,11.59
2017-09-11T00:30:07.313Z,11.55
2017-09-11T00:31:17.253Z,11.62
2017-09-11T00:32:27.203Z,11.62
2017-09-11T00:33:37.149Z,11.56
2017-09-11T00:34:47.411Z,11.58
2017-09-11T00:35:57.353Z,11.52
2017-09-11T00:37:07.294Z,11.53
2017-09-11T00:38:17.550Z,11.6
2017-09-11T00:39:27.821Z,11.6
2017-09-11T00:40:37.760Z,11.59
2017-09-11T00:41:48.033Z,11.6
2017-09-11T00:42:57.973Z,11.63
2017-09-11T00:44:07.908Z,11.71
2017-09-11T00:45:18.169Z,11.62
2017-09-11T00:46:28.431Z,11.68
2017-09-11T00:47:38.692Z,11.71
2017-09-11T00:48:48.948Z,11.62
2017-09-11T00:49:59.204Z,11.76
2017-09-11T00:51:09.151Z,11.6
2017-09-11T00:52:19.090Z,11.67
2017-09-11T00:53:29.356Z,11.67
2017-09-11T00:54:39.616Z,11.62
2017-09-11T00:55:49.884Z,11.65
2017-09-11T00:57:00.141Z,11.56
2017-09-11T00:58:10.394Z,11.49
2017-09-11T00:59:20.654Z,11.45
2017-09-11T01:00:30.929Z,11.43
2017-09-11T01:01:40.866Z,11.43
2017-09-11T01:02:50.809Z,11.4
2017-09-11T01:04:01.066Z,11.4
2017-09-11T01:05:11.327Z,11.44
2017-09-11T01:06:21.592Z,11.37
2017-09-11T01:07:31.853Z,11.37
2017-09-11T01:08:42.117Z,11.37
2017-09-11T01:09:52.057Z,11.33
2017-09-11T01:11:02.317Z,11.3
2017-09-11T01:12:11.612Z,11.27
2017-09-11T01:13:21.881Z,11.25
2017-09-11T01:14:32.139Z,11.31
2017-09-11T01:15:42.085Z,11.34
2017-09-11T01:16:52.350Z,11.34
2017-09-11T01:18:02.288Z,11.34
2017-09-11T01:19:12.232Z,11.23
2017-09-11T01:20:22.493Z,11.31
2017-09-11T01:21:32.755Z,11.31
2017-09-11T01:22:43.021Z,11.26
2017-09-11T01:23:53.283Z,11.3
2017-09-11T01:25:03.223Z,11.33
2017-09-11T01:26:12.846Z,11.35
2017-09-11T01:27:22.787Z,11.37
2017-09-11T01:28:32.726Z,11.26
2017-09-11T01:29:42.989Z,11.25
2017-09-11T01:30:52.931Z,11.3
2017-09-11T01:32:03.437Z,11.3
2017-09-11T01:33:13.705Z,11.27
2017-09-11T01:34:23.648Z,11.38
2017-09-11T01:35:33.914Z,11.3
2017-09-11T01:36:43.534Z,11.27
2017-09-11T01:37:53.158Z,11.33
2017-09-11T01:39:03.420Z,11.35
2017-09-11T01:40:13.037Z,11.3
2017-09-11T01:41:23.304Z,11.33
2017-09-11T01:42:33.251Z,11.35
2017-09-11T01:43:43.201Z,11.31
2017-09-11T01:44:53.463Z,11.34
2017-09-11T01:46:03.728Z,11.45
2017-09-11T01:47:13.669Z,11.37
2017-09-11T01:48:23.938Z,11.4
2017-09-11T01:49:34.208Z,11.41
2017-09-11T01:50:44.469Z,11.52
2017-09-11T01:51:54.091Z,11.49
2017-09-11T01:53:04.355Z,11.56
2017-09-11T01:54:14.620Z,11.53
2017-09-11T01:55:24.237Z,11.56
2017-09-11T01:56:34.529Z,11.52
2017-09-11T01:57:44.796Z,11.62
2017-09-11T01:58:54.416Z,11.62
2017-09-11T02:00:04.398Z,11.59
2017-09-11T02:01:14.633Z,11.65
2017-09-11T02:02:24.253Z,11.65
2017-09-11T02:03:34.521Z,11.6
2017-09-11T02:04:44.478Z,11.63
2017-09-11T02:05:54.418Z,11.67
2017-09-11T02:07:04.684Z,11.67
2017-09-11T02:08:14.626Z,11.63
2017-09-11T02:09:24.571Z,11.65
2017-09-11T02:10:34.837Z,11.67
2017-09-11T02:11:45.097Z,11.62
2017-09-11T02:12:55.041Z,11.65
2017-09-11T02:14:04.982Z,11.65
2017-09-11T02:15:14.961Z,11.7
2017-09-11T02:16:24.902Z,11.63
2017-09-11T02:17:35.160Z,11.65
2017-09-11T02:18:44.782Z,11.67
2017-09-11T02:19:54.729Z,11.63
2017-09-11T02:21:04.672Z,11.6
2017-09-11T02:22:14.933Z,11.65
2017-09-11T02:23:25.196Z,11.77
2017-09-11T02:24:35.455Z,11.77
2017-09-11T02:25:45.090Z,11.81
2017-09-11T02:26:55.030Z,11.8
2017-09-11T02:28:04.978Z,11.76
2017-09-11T02:29:14.924Z,11.76
2017-09-11T02:30:24.543Z,11.78
2017-09-11T02:31:34.487Z,11.81
2017-09-11T02:32:44.445Z,11.81
2017-09-11T02:33:54.717Z,11.89
2017-09-11T02:35:04.655Z,11.81
2017-09-11T02:36:14.276Z,11.89
2017-09-11T02:37:24.227Z,11.85
2017-09-11T02:38:34.492Z,11.86
2017-09-11T02:39:44.441Z,11.86
2017-09-11T02:40:54.716Z,11.88
2017-09-11T02:42:05.134Z,11.85
2017-09-11T02:43:15.072Z,11.95
2017-09-11T02:44:25.341Z,11.99
2017-09-11T02:45:34.970Z,11.97
2017-09-11T02:46:45.238Z,12.02
2017-09-11T02:47:55.539Z,11.96
2017-09-11T02:49:05.800Z,11.97
2017-09-11T02:50:16.082Z,11.99
2017-09-11T02:51:26.342Z,12.05
2017-09-11T02:52:36.607Z,11.96
2017-09-11T02:53:46.225Z,11.99
2017-09-11T02:54:56.494Z,12.07
2017-09-11T02:56:06.760Z,12.02
2017-09-11T02:57:16.707Z,11.97
2017-09-11T02:58:26.983Z,12.02
2017-09-11T02:59:37.245Z,11.99
2017-09-11T03:00:47.191Z,11.99
2017-09-11T03:01:57.497Z,11.99
2017-09-11T03:03:07.119Z,12.02
2017-09-11T03:04:17.057Z,11.99
2017-09-11T03:05:27.322Z,11.99
2017-09-11T03:06:37.592Z,12
2017-09-11T03:07:47.530Z,11.97
2017-09-11T03:08:57.464Z,11.96
2017-09-11T03:10:07.409Z,12.05
2017-09-11T03:11:17.349Z,11.95
2017-09-11T03:12:26.963Z,12
2017-09-11T03:13:36.916Z,11.97
2017-09-11T03:14:47.189Z,11.97
2017-09-11T03:15:57.126Z,11.96
2017-09-11T03:17:07.066Z,11.95
2017-09-11T03:18:17.330Z,11.99
2017-09-11T03:19:27.273Z,11.91
2017-09-11T03:20:37.532Z,11.99
2017-09-11T03:21:47.481Z,12.02
2017-09-11T03:22:57.423Z,11.96
2017-09-11T03:24:07.042Z,11.97
2017-09-11T03:25:16.985Z,11.97
2017-09-11T03:26:27.253Z,11.99
2017-09-11T03:27:37.230Z,11.95
2017-09-11T03:28:47.509Z,12.02
2017-09-11T03:29:57.453Z,11.96
2017-09-11T03:31:07.407Z,12
2017-09-11T03:32:17.358Z,11.99
2017-09-11T03:33:27.299Z,11.99
2017-09-11T03:34:37.560Z,11.97
2017-09-11T03:35:47.821Z,11.96
2017-09-11T03:36:57.767Z,12
2017-09-11T03:38:07.397Z,11.99
2017-09-11T03:39:17.669Z,11.96
2017-09-11T03:40:27.937Z,11.93
2017-09-11T03:41:38.196Z,11.93
2017-09-11T03:42:48.465Z,11.93
2017-09-11T03:43:58.739Z,12
2017-09-11T03:45:09.040Z,11.95
2017-09-11T03:46:19.309Z,11.97
2017-09-11T03:47:29.569Z,11.91
2017-09-11T03:48:39.833Z,11.97
2017-09-11T03:49:50.105Z,11.88
2017-09-11T03:51:00.049Z,11.89
2017-09-11T03:52:10.324Z,11.88
2017-09-11T03:53:20.593Z,11.91
2017-09-11T03:54:30.536Z,11.89
2017-09-11T03:55:40.798Z,11.89
2017-09-11T03:56:50.738Z,11.85
2017-09-11T03:58:00.677Z,11.89
2017-09-11T03:59:10.616Z,11.88
2017-09-11T04:00:20.556Z,11.88
2017-09-11T04:01:30.815Z,11.85
2017-09-11T04:02:41.086Z,11.81
2017-09-11T04:03:51.032Z,11.86
2017-09-11T04:05:01.293Z,11.85
2017-09-11T04:06:10.921Z,11.81
2017-09-11T04:07:20.865Z,11.76
2017-09-11T04:08:30.806Z,11.76
2017-09-11T04:09:41.075Z,11.73
2017-09-11T04:10:51.384Z,11.71
2017-09-11T04:12:01.645Z,11.76
2017-09-11T04:13:11.591Z,11.62
2017-09-11T04:14:21.884Z,11.7
2017-09-11T04:15:32.198Z,11.65
2017-09-11T04:16:42.147Z,11.63
2017-09-11T04:17:52.414Z,11.65
2017-09-11T04:19:02.686Z,11.6
2017-09-11T04:20:12.626Z,11.62
2017-09-11T04:21:22.248Z,11.62
2017-09-11T04:22:32.228Z,11.56
2017-09-11T04:23:42.495Z,11.71
2017-09-11T04:24:52.452Z,11.56
2017-09-11T04:26:02.395Z,11.58
2017-09-11T04:27:12.345Z,11.53
2017-09-11T04:28:22.607Z,11.52
2017-09-11T04:29:32.871Z,11.48
2017-09-11T04:30:42.809Z,11.51
2017-09-11T04:31:52.763Z,11.48
2017-09-11T04:33:03.031Z,11.49
2017-09-11T04:34:12.648Z,11.53
2017-09-11T04:35:22.264Z,11.53
2017-09-11T04:36:32.530Z,11.51
2017-09-11T04:37:42.475Z,11.55
2017-09-11T04:38:52.411Z,11.55
2017-09-11T04:40:02.677Z,11.53
2017-09-11T04:41:12.958Z,11.51
2017-09-11T04:42:23.222Z,11.6
2017-09-11T04:43:33.483Z,11.65
2017-09-11T04:44:43.428Z,11.59
2017-09-11T04:45:53.697Z,11.58
2017-09-11T04:47:03.954Z,11.55
2017-09-11T04:48:13.906Z,11.62
2017-09-11T04:49:23.845Z,11.58
2017-09-11T04:50:34.106Z,11.56
2017-09-11T04:51:44.051Z,11.58
2017-09-11T04:52:54.330Z,11.59
2017-09-11T04:54:04.592Z,11.53
2017-09-11T04:55:14.852Z,11.67
2017-09-11T04:56:24.153Z,11.65
2017-09-11T04:57:34.446Z,11.63
2017-09-11T04:58:44.071Z,11.63
2017-09-11T04:59:53.377Z,11.59
2017-09-11T05:01:03.322Z,11.63
2017-09-11T05:02:12.945Z,11.63
2017-09-11T05:03:23.211Z,11.67
2017-09-11T05:04:33.482Z,11.6
2017-09-11T05:05:43.464Z,11.63
2017-09-11T05:06:53.403Z,11.62
2017-09-11T05:08:03.349Z,11.62
2017-09-11T05:09:12.971Z,11.68
2017-09-11T05:10:23.231Z,11.6
2017-09-11T05:11:33.170Z,11.71
2017-09-11T05:12:43.432Z,11.7
2017-09-11T05:13:53.374Z,11.65
2017-09-11T05:15:03.321Z,11.77
2017-09-11T05:16:12.943Z,11.76
2017-09-11T05:17:23.208Z,11.76
2017-09-11T05:18:33.475Z,11.76
2017-09-11T05:19:43.741Z,11.89
2017-09-11T05:20:53.680Z,11.88
2017-09-11T05:22:03.949Z,11.86
2017-09-11T05:23:14.217Z,11.93
2017-09-11T05:24:24.171Z,11.99
2017-09-11T05:25:34.437Z,11.99
2017-09-11T05:26:44.379Z,12.1
2017-09-11T05:27:54.324Z,12.2
2017-09-11T05:29:04.593Z,12.18
2017-09-11T05:30:14.855Z,12.28
2017-09-11T05:31:24.794Z,12.26
2017-09-11T05:32:35.067Z,12.28
2017-09-11T05:33:45.008Z,12.25
2017-09-11T05:34:55.290Z,12.26
2017-09-11T05:36:04.918Z,12.36
2017-09-11T05:37:15.176Z,12.44
2017-09-11T05:38:25.115Z,12.4
2017-09-11T05:39:35.377Z,12.51
2017-09-11T05:40:45.649Z,12.48
2017-09-11T05:41:55.925Z,12.54
2017-09-11T05:43:06.184Z,12.48
2017-09-11T05:44:16.189Z,12.5
2017-09-11T05:45:26.456Z,12.55
2017-09-11T05:46:36.724Z,12.57
2017-09-11T05:47:46.987Z,12.61
2017-09-11T05:48:57.274Z,12.66
2017-09-11T05:50:07.538Z,12.63
2017-09-11T05:51:17.808Z,12.7
2017-09-11T05:52:28.069Z,12.72
2017-09-11T05:53:38.010Z,12.69
2017-09-11T05:54:47.955Z,12.62
2017-09-11T05:55:58.224Z,12.7
2017-09-11T05:57:08.483Z,12.68
2017-09-11T05:58:18.428Z,12.8
2017-09-11T05:59:28.366Z,12.78
2017-09-11T06:00:38.632Z,12.72
2017-09-11T06:01:48.894Z,12.8
2017-09-11T06:02:59.156Z,12.8
2017-09-11T06:04:09.431Z,12.75
2017-09-11T06:05:19.695Z,12.81
2017-09-11T06:06:29.339Z,12.81
2017-09-11T06:07:39.607Z,12.8
2017-09-11T06:08:49.908Z,12.84
2017-09-11T06:10:00.177Z,12.8
2017-09-11T06:11:10.123Z,12.86
2017-09-11T06:12:20.070Z,12.84
2017-09-11T06:13:30.338Z,12.81
2017-09-11T06:14:40.280Z,12.81
2017-09-11T06:15:50.249Z,12.8
2017-09-11T06:17:00.516Z,12.8
2017-09-11T06:18:10.784Z,12.83
2017-09-11T06:19:21.053Z,12.84
2017-09-11T06:20:30.354Z,12.81
2017-09-11T06:21:39.973Z,12.65
2017-09-11T06:22:49.912Z,12.68
2017-09-11T06:23:59.875Z,12.69
2017-09-11T06:25:09.829Z,12.78
2017-09-11T06:26:20.092Z,12.69
2017-09-11T06:27:30.032Z,12.62
2017-09-11T06:28:39.974Z,12.7
2017-09-11T06:29:49.592Z,12.73
2017-09-11T06:30:59.216Z,12.63
2017-09-11T06:32:08.837Z,12.69
2017-09-11T06:33:19.100Z,12.69
2017-09-11T06:34:29.047Z,12.69
2017-09-11T06:35:39.314Z,12.68
2017-09-11T06:36:49.576Z,12.65
2017-09-11T06:37:59.846Z,12.8
2017-09-11T06:39:10.107Z,12.81
2017-09-11T06:40:20.375Z,12.78
2017-09-11T06:41:30.322Z,12.83
2017-09-11T06:42:39.943Z,12.81
2017-09-11T06:43:49.888Z,12.86
2017-09-11T06:44:59.828Z,12.83
2017-09-11T06:46:10.122Z,12.86
2017-09-11T06:47:20.384Z,12.86
2017-09-11T06:48:30.329Z,12.87
2017-09-11T06:49:40.274Z,12.87
2017-09-11T06:50:50.542Z,12.99
2017-09-11T06:51:59.544Z,12.94
2017-09-11T06:53:09.809Z,12.93
2017-09-11T06:54:19.749Z,12.88
2017-09-11T06:55:30.017Z,12.93
2017-09-11T06:56:40.280Z,13.05
2017-09-11T06:57:50.538Z,13.05
2017-09-11T06:59:00.808Z,13.09
2017-09-11T07:00:10.427Z,13.09
2017-09-11T07:01:20.685Z,13.17
2017-09-11T07:02:30.627Z,13.13
2017-09-11T07:03:40.890Z,13.19
2017-09-11T07:04:50.836Z,13.13
2017-09-11T07:06:01.112Z,13.13
2017-09-11T07:07:11.061Z,13.19
2017-09-11T07:08:21.324Z,13.16
2017-09-11T07:09:30.947Z,13.12
2017-09-11T07:10:41.211Z,13.16
2017-09-11T07:11:51.156Z,13.12
2017-09-11T07:13:01.107Z,13.13
2017-09-11T07:14:11.378Z,13.11
2017-09-11T07:15:21.318Z,13.12
2017-09-11T07:16:31.262Z,13.11
2017-09-11T07:17:41.211Z,13.13
2017-09-11T07:18:50.511Z,13.17
2017-09-11T07:20:00.782Z,13.17
2017-09-11T07:21:10.408Z,13.19
2017-09-11T07:22:20.350Z,13.28
2017-09-11T07:23:30.622Z,13.23
2017-09-11T07:24:40.887Z,13.27
2017-09-11T07:25:51.170Z,13.24
2017-09-11T07:27:01.116Z,13.31
2017-09-11T07:28:11.379Z,13.27
2017-09-11T07:29:21.644Z,13.28
2017-09-11T07:30:31.906Z,13.24
2017-09-11T07:31:42.204Z,13.26
2017-09-11T07:32:52.475Z,13.37
2017-09-11T07:34:02.739Z,13.42
2017-09-11T07:35:13.009Z,13.3
2017-09-11T07:36:22.632Z,13.31
2017-09-11T07:37:32.248Z,13.31
2017-09-11T07:38:42.188Z,13.36
2017-09-11T07:39:52.451Z,13.42
2017-09-11T07:41:02.718Z,13.39
2017-09-11T07:42:13.023Z,13.45
2017-09-11T07:43:23.295Z,13.31
2017-09-11T07:44:33.239Z,13.39
2017-09-11T07:45:43.504Z,13.46
2017-09-11T07:46:53.452Z,13.5
2017-09-11T07:48:03.716Z,13.46
2017-09-11T07:49:13.978Z,13.43
2017-09-11T07:50:23.926Z,13.49
2017-09-11T07:51:33.226Z,13.5
2017-09-11T07:52:43.168Z,13.52
2017-09-11T07:53:52.784Z,13.52
2017-09-11T07:55:02.411Z,13.54
2017-09-11T07:56:12.680Z,13.52
2017-09-11T07:57:22.629Z,13.52
2017-09-11T07:58:32.893Z,13.54
2017-09-11T07:59:42.836Z,13.54
2017-09-11T08:00:53.139Z,13.55
2017-09-11T08:02:03.400Z,13.61
2017-09-11T08:03:13.349Z,13.52
2017-09-11T08:04:23.291Z,13.55
2017-09-11T08:05:33.239Z,13.58
2017-09-11T08:06:43.511Z,13.61
2017-09-11T08:07:53.774Z,13.54
2017-09-11T08:09:04.037Z,13.57
2017-09-11T08:10:14.303Z,13.5
2017-09-11T08:11:24.264Z,13.52
2017-09-11T08:12:34.207Z,13.64
2017-09-11T08:13:44.472Z,13.58
2017-09-11T08:14:54.732Z,13.62
2017-09-11T08:16:04.379Z,13.58
2017-09-11T08:17:14.319Z,13.68
2017-09-11T08:18:24.275Z,13.62
2017-09-11T08:19:34.543Z,13.78
2017-09-11T08:20:47.060Z,13.64
2017-09-11T08:21:57.006Z,13.58
2017-09-11T08:23:07.277Z,13.61
2017-09-11T08:24:16.900Z,13.67
2017-09-11T08:25:26.847Z,13.67
2017-09-11T08:26:37.120Z,13.61
2017-09-11T08:27:47.064Z,13.62
2017-09-11T08:28:57.330Z,13.65
2017-09-11T08:30:07.307Z,13.68
2017-09-11T08:31:17.246Z,13.64
2017-09-11T08:32:26.871Z,13.67
2017-09-11T08:33:36.492Z,13.71
2017-09-11T08:34:46.433Z,13.65
2017-09-11T08:35:56.702Z,13.8
2017-09-11T08:37:06.964Z,13.79
2017-09-11T08:38:16.593Z,13.8
2017-09-11T08:39:26.861Z,13.79
2017-09-11T08:40:37.126Z,13.83
2017-09-11T08:41:46.748Z,13.8
2017-09-11T08:42:57.012Z,13.82
2017-09-11T08:44:06.648Z,13.8
2017-09-11T08:45:16.915Z,13.75
2017-09-11T08:46:27.180Z,13.8
2017-09-11T08:47:37.453Z,13.82
2017-09-11T08:48:47.715Z,13.82
2017-09-11T08:49:57.653Z,13.75
2017-09-11T08:51:07.275Z,13.79
2017-09-11T08:52:17.228Z,13.7
2017-09-11T08:53:27.491Z,13.68
2017-09-11T08:54:37.442Z,13.65
2017-09-11T08:55:47.388Z,13.67
2017-09-11T08:56:57.335Z,13.64
2017-09-11T08:58:07.601Z,13.65
2017-09-11T08:59:16.579Z,13.57
2017-09-11T09:00:26.849Z,13.67
2017-09-11T09:01:36.468Z,13.64
2017-09-11T09:02:46.412Z,13.65
2017-09-11T09:03:56.678Z,13.58
2017-09-11T09:05:06.944Z,13.62
2017-09-11T09:06:16.560Z,13.58
2017-09-11T09:07:26.830Z,13.58
2017-09-11T09:08:36.769Z,13.61
2017-09-11T09:09:46.391Z,13.49
2017-09-11T09:10:56.352Z,13.5
2017-09-11T09:12:06.297Z,13.5
2017-09-11T09:13:15.597Z,13.57
2017-09-11T09:14:25.867Z,13.54
2017-09-11T09:15:35.488Z,13.5
2017-09-11T09:16:45.112Z,13.47
2017-09-11T09:17:55.055Z,13.49
2017-09-11T09:19:05.004Z,13.49
2017-09-11T09:20:14.949Z,13.39
2017-09-11T09:21:24.896Z,13.45
2017-09-11T09:22:35.166Z,13.47
2017-09-11T09:23:44.794Z,13.4
2017-09-11T09:24:54.091Z,13.5
2017-09-11T09:26:04.358Z,13.43
2017-09-11T09:27:14.623Z,13.54
2017-09-11T09:28:24.241Z,13.47
2017-09-11T09:29:34.189Z,13.46
2017-09-11T09:30:44.454Z,13.45
2017-09-11T09:31:54.396Z,13.42
2017-09-11T09:33:04.342Z,13.42
2017-09-11T09:34:14.286Z,13.52
2017-09-11T09:35:24.552Z,13.42
2017-09-11T09:36:34.820Z,13.47
2017-09-11T09:37:45.093Z,13.42
2017-09-11T09:38:54.717Z,13.5
2017-09-11T09:40:04.999Z,13.52
2017-09-11T09:41:14.964Z,13.52
2017-09-11T09:42:24.909Z,13.52
2017-09-11T09:43:34.211Z,13.55
2017-09-11T09:44:44.153Z,13.55
2017-09-11T09:45:54.418Z,13.65
2017-09-11T09:47:04.687Z,13.61
2017-09-11T09:48:13.998Z,13.61
2017-09-11T09:49:23.641Z,13.54
2017-09-11T09:50:33.583Z,13.61
2017-09-11T09:51:43.849Z,13.62
2017-09-11T09:52:54.112Z,13.71
2017-09-11T09:54:04.056Z,13.68
2017-09-11T09:55:14.319Z,13.61
2017-09-11T09:56:24.261Z,13.68
2017-09-11T09:57:34.516Z,13.65
2017-09-11T09:58:44.841Z,13.67
2017-09-11T09:59:54.806Z,13.65
2017-09-11T10:01:04.431Z,13.64
2017-09-11T10:02:14.371Z,13.68
2017-09-11T10:03:24.665Z,13.65
2017-09-11T10:04:34.291Z,13.68
2017-09-11T10:05:44.235Z,13.68
2017-09-11T10:06:54.193Z,13.68
2017-09-11T10:08:04.136Z,13.67
2017-09-11T10:09:14.414Z,13.62
2017-09-11T10:10:24.681Z,13.62
2017-09-11T10:11:34.304Z,13.65
2017-09-11T10:12:44.579Z,13.7
2017-09-11T10:13:54.843Z,13.78
2017-09-11T10:15:04.796Z,13.73
2017-09-11T10:16:14.741Z,13.71
2017-09-11T10:17:25.004Z,13.62
2017-09-11T10:18:34.626Z,13.64
2017-09-11T10:19:44.895Z,13.65
2017-09-11T10:20:54.840Z,13.64
2017-09-11T10:22:05.106Z,13.6
2017-09-11T10:23:15.056Z,13.61
2017-09-11T10:24:24.693Z,13.62
2017-09-11T10:25:34.970Z,13.6
2017-09-11T10:26:44.907Z,13.57
2017-09-11T10:27:55.171Z,13.62
2017-09-11T10:29:05.119Z,13.5
2017-09-11T10:30:15.388Z,13.52
2017-09-11T10:31:25.008Z,13.54
2017-09-11T10:32:34.950Z,13.54
2017-09-11T10:33:45.220Z,13.47
2017-09-11T10:34:55.259Z,13.49
2017-09-11T10:36:04.877Z,13.47
2017-09-11T10:37:14.820Z,13.31
2017-09-11T10:38:24.761Z,13.4
2017-09-11T10:39:34.704Z,13.42
2017-09-11T10:40:44.661Z,13.39
2017-09-11T10:41:54.924Z,13.23
2017-09-11T10:43:05.184Z,13.4
2017-09-11T10:44:15.144Z,13.24
2017-09-11T10:45:24.769Z,13.3
2017-09-11T10:46:34.719Z,13.16
2017-09-11T10:47:44.030Z,13.17
2017-09-11T10:48:54.292Z,13.19
2017-09-11T10:50:03.915Z,13.2
2017-09-11T10:51:14.173Z,13.17
2017-09-11T10:52:24.121Z,13.16
2017-09-11T10:53:33.784Z,13.12
2017-09-11T10:54:43.734Z,13.17
2017-09-11T10:55:53.999Z,13.08
2017-09-11T10:57:04.262Z,13.11
2017-09-11T10:58:13.883Z,13.06
2017-09-11T10:59:23.827Z,13.01
2017-09-11T11:00:33.772Z,13.02
2017-09-11T11:01:44.039Z,13.01
2017-09-11T11:02:54.308Z,12.93
2017-09-11T11:04:04.577Z,12.98
2017-09-11T11:05:14.842Z,12.99
2017-09-11T11:06:25.106Z,12.98
2017-09-11T11:07:35.370Z,12.99
2017-09-11T11:08:44.989Z,12.94
2017-09-11T11:09:55.253Z,12.91
2017-09-11T11:11:04.872Z,13.01
2017-09-11T11:12:15.141Z,12.87
2017-09-11T11:13:24.768Z,12.99
2017-09-11T11:14:35.029Z,12.91
2017-09-11T11:15:44.993Z,12.84
2017-09-11T11:16:55.285Z,12.95
2017-09-11T11:18:05.548Z,12.9
2017-09-11T11:19:15.171Z,12.87
2017-09-11T11:20:25.431Z,12.84
2017-09-11T11:21:35.374Z,12.86
2017-09-11T11:22:45.642Z,12.94
2017-09-11T11:23:55.919Z,12.88
2017-09-11T11:25:06.188Z,12.88
2017-09-11T11:26:16.133Z,12.88
2017-09-11T11:27:26.393Z,12.87
2017-09-11T11:28:36.333Z,12.88
2017-09-11T11:29:46.279Z,12.88
2017-09-11T11:30:56.541Z,12.9
2017-09-11T11:32:06.809Z,12.87
2017-09-11T11:33:16.428Z,12.8
2017-09-11T11:34:26.381Z,12.88
2017-09-11T11:35:36.328Z,12.73
2017-09-11T11:36:46.267Z,12.81
2017-09-11T11:37:56.216Z,12.84
2017-09-11T11:39:06.479Z,12.83
2017-09-11T11:40:16.107Z,12.81
2017-09-11T11:41:26.048Z,12.88
2017-09-11T11:42:36.314Z,12.87
2017-09-11T11:43:45.950Z,12.83
2017-09-11T11:44:56.217Z,12.87
2017-09-11T11:46:06.176Z,12.91
2017-09-11T11:47:16.119Z,12.87
2017-09-11T11:48:25.740Z,12.84
2017-09-11T11:49:35.394Z,12.9
2017-09-11T11:50:45.662Z,12.88
2017-09-11T11:51:55.605Z,12.86
2017-09-11T11:53:05.225Z,12.87
2017-09-11T11:54:14.855Z,12.88
2017-09-11T11:55:24.801Z,12.81
2017-09-11T11:56:34.101Z,12.8
2017-09-11T11:57:44.369Z,12.81
2017-09-11T11:58:54.635Z,12.75
2017-09-11T12:00:04.578Z,12.78
2017-09-11T12:01:14.526Z,12.63
2017-09-11T12:02:24.468Z,12.68
2017-09-11T12:03:34.733Z,12.62
2017-09-11T12:04:44.995Z,12.7
2017-09-11T12:05:54.620Z,12.66
2017-09-11T12:07:04.564Z,12.65
2017-09-11T12:08:13.870Z,12.68
2017-09-11T12:09:24.133Z,12.68
2017-09-11T12:10:34.071Z,12.76
2017-09-11T12:11:44.335Z,12.81
2017-09-11T12:12:54.292Z,12.75
2017-09-11T12:14:04.244Z,12.66
2017-09-11T12:15:14.188Z,12.76
2017-09-11T12:16:24.452Z,12.75
2017-09-11T12:17:34.719Z,12.83
2017-09-11T12:18:44.666Z,12.78
2017-09-11T12:19:54.282Z,12.86
2017-09-11T12:21:03.909Z,12.88
2017-09-11T12:22:14.183Z,12.88
2017-09-11T12:23:24.449Z,12.83
2017-09-11T12:24:34.393Z,12.88
2017-09-11T12:25:44.660Z,12.86
2017-09-11T12:26:54.282Z,12.87
2017-09-11T12:28:04.548Z,12.88
2017-09-11T12:29:14.808Z,12.9
2017-09-11T12:30:24.109Z,12.9
2017-09-11T12:31:34.366Z,12.91
2017-09-11T12:32:44.315Z,12.86
2017-09-11T12:33:54.578Z,12.87
2017-09-11T12:35:04.203Z,12.87
2017-09-11T12:36:13.929Z,12.93
2017-09-11T12:37:24.196Z,12.84
2017-09-11T12:38:34.460Z,12.98
2017-09-11T12:39:44.406Z,13.01
2017-09-11T12:40:54.350Z,12.87
2017-09-11T12:42:04.294Z,12.87
2017-09-11T12:43:13.912Z,12.98
2017-09-11T12:44:24.180Z,12.87
2017-09-11T12:45:33.802Z,12.93
2017-09-11T12:46:43.748Z,12.94
2017-09-11T12:47:54.013Z,12.95
2017-09-11T12:49:04.278Z,12.93
2017-09-11T12:50:14.222Z,13.05
2017-09-11T12:51:24.165Z,13.08
2017-09-11T12:52:34.441Z,13.11
2017-09-11T12:53:44.060Z,13.06
2017-09-11T12:54:54.337Z,13.16
2017-09-11T12:56:03.639Z,13.2
2017-09-11T12:57:13.910Z,13.24
2017-09-11T12:58:23.853Z,13.28
2017-09-11T12:59:34.121Z,13.28
2017-09-11T13:00:44.070Z,13.31
2017-09-11T13:01:54.020Z,13.36
2017-09-11T13:03:04.286Z,13.36
2017-09-11T13:04:14.241Z,13.31
2017-09-11T13:05:24.508Z,13.33
2017-09-11T13:06:34.749Z,13.45
2017-09-11T13:07:45.020Z,13.36
2017-09-11T13:08:55.282Z,13.33
2017-09-11T13:10:05.227Z,13.36
2017-09-11T13:11:15.517Z,13.37
2017-09-11T13:12:25.788Z,13.4
2017-09-11T13:13:36.094Z,13.42
2017-09-11T13:14:46.421Z,13.47
2017-09-11T13:15:56.684Z,13.46
2017-09-11T13:17:06.306Z,13.49
2017-09-11T13:18:16.252Z,13.47
2017-09-11T13:19:26.519Z,13.5
2017-09-11T13:20:36.146Z,13.52
2017-09-11T13:21:46.125Z,13.54
2017-09-11T13:22:56.394Z,13.58
2017-09-11T13:24:06.661Z,13.55
2017-09-11T13:25:16.282Z,13.62
2017-09-11T13:26:26.222Z,13.57
2017-09-11T13:27:36.487Z,13.6
2017-09-11T13:28:46.436Z,13.55
2017-09-11T13:29:56.377Z,13.55
2017-09-11T13:31:06.647Z,13.58
2017-09-11T13:32:16.917Z,13.62
2017-09-11T13:33:26.867Z,13.58
2017-09-11T13:34:37.163Z,13.6
2017-09-11T13:35:47.105Z,13.55
2017-09-11T13:36:56.411Z,13.58
2017-09-11T13:38:06.681Z,13.55
2017-09-11T13:39:16.627Z,13.58
2017-09-11T13:40:26.906Z,13.6
2017-09-11T13:41:37.180Z,13.54
2017-09-11T13:42:47.121Z,13.57
2017-09-11T13:43:57.398Z,13.31
2017-09-11T13:45:07.344Z,13.33
2017-09-11T13:46:17.613Z,13.39
2017-09-11T13:47:27.558Z,13.42
2017-09-11T13:48:37.516Z,13.3
2017-09-11T13:49:47.778Z,13.28
2017-09-11T13:50:58.051Z,13.27
2017-09-11T13:52:08.312Z,13.27
2017-09-11T13:53:18.254Z,13.27
2017-09-11T13:54:28.197Z,13.27
2017-09-11T13:55:37.821Z,13.24
2017-09-11T13:56:48.085Z,13.26
2017-09-11T13:57:58.361Z,13.36
2017-09-11T13:59:08.637Z,13.36
2017-09-11T14:00:18.583Z,13.28
2017-09-11T14:01:28.537Z,13.28
2017-09-11T14:02:38.174Z,13.23
2017-09-11T14:03:48.118Z,13.27
2017-09-11T14:04:58.061Z,13.24
2017-09-11T14:06:08.330Z,13.24
2017-09-11T14:07:18.274Z,13.4
2017-09-11T14:08:27.578Z,13.28
2017-09-11T14:09:37.865Z,13.3
2017-09-11T14:10:50.138Z,13.36
2017-09-11T14:12:00.405Z,13.28
2017-09-11T14:13:10.667Z,13.33
2017-09-11T14:14:20.936Z,13.24
2017-09-11T14:15:31.227Z,13.3
2017-09-11T14:16:40.527Z,13.31
2017-09-11T14:17:50.493Z,13.3
2017-09-11T14:19:00.755Z,13.4
2017-09-11T14:20:11.019Z,13.36
2017-09-11T14:21:21.289Z,13.39
2017-09-11T14:22:31.235Z,13.36
2017-09-11T14:23:41.186Z,13.33
2017-09-11T14:24:51.131Z,13.43
2017-09-11T14:26:01.399Z,13.31
2017-09-11T14:27:10.700Z,13.36
2017-09-11T14:28:20.653Z,13.4
2017-09-11T14:29:30.273Z,13.28
2017-09-11T14:30:40.216Z,13.43
2017-09-11T14:31:50.488Z,13.36
2017-09-11T14:33:00.748Z,13.28
2017-09-11T14:34:10.374Z,13.2
2017-09-11T14:35:20.311Z,13.33
2017-09-11T14:36:30.256Z,13.28
2017-09-11T14:37:40.526Z,13.27
2017-09-11T14:38:50.790Z,13.36
2017-09-11T14:40:01.052Z,13.24
2017-09-11T14:41:10.681Z,13.33
2017-09-11T14:42:20.300Z,13.36
2017-09-11T14:43:30.575Z,13.33
2017-09-11T14:44:40.519Z,13.31
2017-09-11T14:45:50.460Z,13.36
2017-09-11T14:47:00.720Z,13.3
2017-09-11T14:48:10.659Z,13.37
2017-09-11T14:49:20.600Z,13.39
2017-09-11T14:50:30.862Z,13.43
2017-09-11T14:51:40.163Z,13.33
2017-09-11T14:52:50.433Z,13.49
2017-09-11T14:53:59.772Z,13.52
2017-09-11T14:55:09.450Z,13.49
2017-09-11T14:56:19.418Z,13.54
2017-09-11T14:57:29.406Z,13.5
2017-09-11T14:58:39.387Z,13.47
2017-09-11T14:59:49.666Z,13.54
2017-09-11T15:00:59.952Z,13.5
2017-09-11T15:02:09.909Z,13.58
2017-09-11T15:03:19.528Z,13.64
2017-09-11T15:04:29.156Z,13.62
2017-09-11T15:05:39.115Z,13.7
2017-09-11T15:06:49.464Z,13.64